sensor_id;sensor_type;location;lat;lon;timestamp;P1;durP1;ratioP1;P2;durP2;ratioP2
45522;SDS011;31254;51.680;5.394;2022-08-14T00:00:09;9.27;;;5.07;;
45522;SDS011;31254;51.680;5.394;2022-08-14T00:02:38;7.75;;;5.15;;
45522;SDS011;31254;51.680;5.394;2022-08-14T00:05:07;8.30;;;5.20;;
45522;SDS011;31254;51.680;5.394;2022-08-14T00:07:36;8.65;;;4.88;;
45522;SDS011;31254;51.680;5.394;2022-08-14T00:10:08;6.85;;;5.38;;
45522;SDS011;31254;51.680;5.394;2022-08-14T00:12:58;7.35;;;4.68;;
45522;SDS011;31254;51.680;5.394;2022-08-14T00:15:33;6.25;;;5.40;;
45522;SDS011;31254;51.680;5.394;2022-08-14T00:18:10;6.43;;;4.85;;
45522;SDS011;31254;51.680;5.394;2022-08-14T00:20:55;8.43;;;4.70;;
45522;SDS011;31254;51.680;5.394;2022-08-14T00:23:22;7.65;;;4.80;;
45522;SDS011;31254;51.680;5.394;2022-08-14T00:25:53;9.18;;;4.88;;
45522;SDS011;31254;51.680;5.394;2022-08-14T00:28:31;5.75;;;5.13;;
45522;SDS011;31254;51.680;5.394;2022-08-14T00:31:00;9.65;;;5.40;;
45522;SDS011;31254;51.680;5.394;2022-08-14T00:33:31;6.65;;;5.00;;
45522;SDS011;31254;51.680;5.394;2022-08-14T00:36:17;7.88;;;5.80;;
45522;SDS011;31254;51.680;5.394;2022-08-14T00:39:10;6.70;;;5.30;;
45522;SDS011;31254;51.680;5.394;2022-08-14T00:41:44;9.85;;;5.70;;
45522;SDS011;31254;51.680;5.394;2022-08-14T00:44:13;8.32;;;6.20;;
45522;SDS011;31254;51.680;5.394;2022-08-14T00:46:58;11.15;;;6.13;;
45522;SDS011;31254;51.680;5.394;2022-08-14T00:49:28;8.90;;;6.05;;
45522;SDS011;31254;51.680;5.394;2022-08-14T00:52:03;12.10;;;6.95;;
45522;SDS011;31254;51.680;5.394;2022-08-14T00:54:32;10.27;;;6.30;;
45522;SDS011;31254;51.680;5.394;2022-08-14T00:57:05;9.48;;;6.00;;
45522;SDS011;31254;51.680;5.394;2022-08-14T00:59:33;10.10;;;5.90;;
45522;SDS011;31254;51.680;5.394;2022-08-14T01:02:03;7.85;;;6.45;;
45522;SDS011;31254;51.680;5.394;2022-08-14T01:04:34;9.80;;;5.90;;
45522;SDS011;31254;51.680;5.394;2022-08-14T01:07:19;7.82;;;6.30;;
45522;SDS011;31254;51.680;5.394;2022-08-14T01:09:48;11.00;;;6.78;;
45522;SDS011;31254;51.680;5.394;2022-08-14T01:12:19;12.13;;;6.97;;
45522;SDS011;31254;51.680;5.394;2022-08-14T01:14:57;9.10;;;7.10;;
45522;SDS011;31254;51.680;5.394;2022-08-14T01:17:30;8.98;;;6.93;;
45522;SDS011;31254;51.680;5.394;2022-08-14T01:20:18;12.00;;;6.75;;
45522;SDS011;31254;51.680;5.394;2022-08-14T01:23:10;11.02;;;6.95;;
45522;SDS011;31254;51.680;5.394;2022-08-14T01:25:44;8.15;;;6.50;;
45522;SDS011;31254;51.680;5.394;2022-08-14T01:28:13;8.55;;;7.05;;
45522;SDS011;31254;51.680;5.394;2022-08-14T01:31:00;12.73;;;7.15;;
45522;SDS011;31254;51.680;5.394;2022-08-14T01:33:27;11.00;;;7.00;;
45522;SDS011;31254;51.680;5.394;2022-08-14T01:35:55;9.27;;;7.00;;
45522;SDS011;31254;51.680;5.394;2022-08-14T01:38:32;10.23;;;7.25;;
45522;SDS011;31254;51.680;5.394;2022-08-14T01:41:06;8.43;;;7.03;;
45522;SDS011;31254;51.680;5.394;2022-08-14T01:46:23;9.43;;;7.68;;
45522;SDS011;31254;51.680;5.394;2022-08-14T01:48:58;7.93;;;6.93;;
45522;SDS011;31254;51.680;5.394;2022-08-14T01:51:27;9.27;;;7.68;;
45522;SDS011;31254;51.680;5.394;2022-08-14T01:53:59;9.52;;;7.50;;
45522;SDS011;31254;51.680;5.394;2022-08-14T01:56:30;9.40;;;7.18;;
45522;SDS011;31254;51.680;5.394;2022-08-14T01:59:09;9.13;;;7.43;;
45522;SDS011;31254;51.680;5.394;2022-08-14T02:02:04;10.60;;;7.53;;
45522;SDS011;31254;51.680;5.394;2022-08-14T02:04:46;9.02;;;7.80;;
45522;SDS011;31254;51.680;5.394;2022-08-14T02:07:23;10.35;;;7.80;;
45522;SDS011;31254;51.680;5.394;2022-08-14T02:10:10;8.80;;;7.90;;
45522;SDS011;31254;51.680;5.394;2022-08-14T02:12:41;11.57;;;6.97;;
45522;SDS011;31254;51.680;5.394;2022-08-14T02:15:22;9.32;;;7.70;;
45522;SDS011;31254;51.680;5.394;2022-08-14T02:17:50;9.00;;;7.53;;
45522;SDS011;31254;51.680;5.394;2022-08-14T02:20:16;9.73;;;7.82;;
45522;SDS011;31254;51.680;5.394;2022-08-14T02:22:49;9.15;;;7.72;;
45522;SDS011;31254;51.680;5.394;2022-08-14T02:25:20;8.95;;;7.45;;
45522;SDS011;31254;51.680;5.394;2022-08-14T02:27:49;12.18;;;8.10;;
45522;SDS011;31254;51.680;5.394;2022-08-14T02:30:36;9.23;;;8.05;;
45522;SDS011;31254;51.680;5.394;2022-08-14T02:33:03;12.77;;;9.38;;
45522;SDS011;31254;51.680;5.394;2022-08-14T02:35:30;13.85;;;8.30;;
45522;SDS011;31254;51.680;5.394;2022-08-14T02:37:58;10.30;;;8.82;;
45522;SDS011;31254;51.680;5.394;2022-08-14T02:40:26;13.27;;;8.63;;
45522;SDS011;31254;51.680;5.394;2022-08-14T02:42:59;13.65;;;9.30;;
45522;SDS011;31254;51.680;5.394;2022-08-14T02:45:28;12.13;;;8.57;;
45522;SDS011;31254;51.680;5.394;2022-08-14T02:48:10;10.73;;;9.05;;
45522;SDS011;31254;51.680;5.394;2022-08-14T02:51:00;12.10;;;9.15;;
45522;SDS011;31254;51.680;5.394;2022-08-14T02:53:29;11.88;;;8.77;;
45522;SDS011;31254;51.680;5.394;2022-08-14T02:55:58;9.80;;;8.50;;
45522;SDS011;31254;51.680;5.394;2022-08-14T02:58:37;10.68;;;9.00;;
45522;SDS011;31254;51.680;5.394;2022-08-14T03:01:07;14.40;;;9.90;;
45522;SDS011;31254;51.680;5.394;2022-08-14T03:03:37;16.80;;;9.98;;
45522;SDS011;31254;51.680;5.394;2022-08-14T03:06:04;12.38;;;9.55;;
45522;SDS011;31254;51.680;5.394;2022-08-14T03:08:34;15.27;;;9.35;;
45522;SDS011;31254;51.680;5.394;2022-08-14T03:11:04;12.02;;;9.93;;
45522;SDS011;31254;51.680;5.394;2022-08-14T03:13:45;17.35;;;9.50;;
45522;SDS011;31254;51.680;5.394;2022-08-14T03:16:17;12.23;;;9.70;;
45522;SDS011;31254;51.680;5.394;2022-08-14T03:18:52;11.57;;;9.80;;
45522;SDS011;31254;51.680;5.394;2022-08-14T03:21:25;12.20;;;9.45;;
45522;SDS011;31254;51.680;5.394;2022-08-14T03:23:53;12.45;;;10.13;;
45522;SDS011;31254;51.680;5.394;2022-08-14T03:26:31;12.73;;;10.43;;
45522;SDS011;31254;51.680;5.394;2022-08-14T03:29:00;12.30;;;10.98;;
45522;SDS011;31254;51.680;5.394;2022-08-14T03:31:28;12.63;;;9.70;;
45522;SDS011;31254;51.680;5.394;2022-08-14T03:33:55;11.50;;;10.30;;
45522;SDS011;31254;51.680;5.394;2022-08-14T03:36:25;14.40;;;10.05;;
45522;SDS011;31254;51.680;5.394;2022-08-14T03:39:13;10.93;;;9.50;;
45522;SDS011;31254;51.680;5.394;2022-08-14T03:41:50;11.95;;;9.75;;
45522;SDS011;31254;51.680;5.394;2022-08-14T03:44:21;11.48;;;10.00;;
45522;SDS011;31254;51.680;5.394;2022-08-14T03:47:09;11.80;;;10.10;;
45522;SDS011;31254;51.680;5.394;2022-08-14T03:49:37;11.20;;;9.55;;
45522;SDS011;31254;51.680;5.394;2022-08-14T03:52:07;12.48;;;9.73;;
45522;SDS011;31254;51.680;5.394;2022-08-14T03:54:54;14.43;;;9.40;;
45522;SDS011;31254;51.680;5.394;2022-08-14T03:57:20;14.27;;;9.45;;
45522;SDS011;31254;51.680;5.394;2022-08-14T03:59:49;14.15;;;9.75;;
45522;SDS011;31254;51.680;5.394;2022-08-14T04:02:15;11.20;;;9.95;;
45522;SDS011;31254;51.680;5.394;2022-08-14T04:04:58;11.70;;;9.35;;
45522;SDS011;31254;51.680;5.394;2022-08-14T04:07:38;13.40;;;10.07;;
45522;SDS011;31254;51.680;5.394;2022-08-14T04:10:15;14.50;;;9.13;;
45522;SDS011;31254;51.680;5.394;2022-08-14T04:12:56;12.63;;;10.02;;
45522;SDS011;31254;51.680;5.394;2022-08-14T04:15:29;12.02;;;9.82;;
45522;SDS011;31254;51.680;5.394;2022-08-14T04:17:56;12.15;;;9.93;;
45522;SDS011;31254;51.680;5.394;2022-08-14T04:20:25;17.08;;;9.90;;
45522;SDS011;31254;51.680;5.394;2022-08-14T04:22:52;12.70;;;9.93;;
45522;SDS011;31254;51.680;5.394;2022-08-14T04:25:21;16.13;;;10.18;;
45522;SDS011;31254;51.680;5.394;2022-08-14T04:27:48;11.98;;;9.38;;
45522;SDS011;31254;51.680;5.394;2022-08-14T04:30:29;11.98;;;10.07;;
45522;SDS011;31254;51.680;5.394;2022-08-14T04:32:58;14.20;;;9.77;;
45522;SDS011;31254;51.680;5.394;2022-08-14T04:35:36;14.57;;;10.27;;
45522;SDS011;31254;51.680;5.394;2022-08-14T04:38:22;13.57;;;9.93;;
45522;SDS011;31254;51.680;5.394;2022-08-14T04:41:12;15.95;;;10.30;;
45522;SDS011;31254;51.680;5.394;2022-08-14T04:43:59;18.48;;;11.15;;
45522;SDS011;31254;51.680;5.394;2022-08-14T04:46:28;17.45;;;10.88;;
45522;SDS011;31254;51.680;5.394;2022-08-14T04:49:15;13.70;;;9.88;;
45522;SDS011;31254;51.680;5.394;2022-08-14T04:51:42;14.00;;;10.43;;
45522;SDS011;31254;51.680;5.394;2022-08-14T04:54:21;16.50;;;10.57;;
45522;SDS011;31254;51.680;5.394;2022-08-14T04:56:53;16.35;;;10.23;;
45522;SDS011;31254;51.680;5.394;2022-08-14T04:59:21;12.48;;;10.43;;
45522;SDS011;31254;51.680;5.394;2022-08-14T05:01:52;13.45;;;10.80;;
45522;SDS011;31254;51.680;5.394;2022-08-14T05:04:22;15.23;;;10.77;;
45522;SDS011;31254;51.680;5.394;2022-08-14T05:06:50;16.58;;;11.38;;
45522;SDS011;31254;51.680;5.394;2022-08-14T05:09:21;13.85;;;10.10;;
45522;SDS011;31254;51.680;5.394;2022-08-14T05:11:55;14.57;;;10.93;;
45522;SDS011;31254;51.680;5.394;2022-08-14T05:14:43;16.48;;;10.90;;
45522;SDS011;31254;51.680;5.394;2022-08-14T05:17:20;15.88;;;10.90;;
45522;SDS011;31254;51.680;5.394;2022-08-14T05:20:09;13.18;;;10.75;;
45522;SDS011;31254;51.680;5.394;2022-08-14T05:22:57;12.77;;;10.27;;
45522;SDS011;31254;51.680;5.394;2022-08-14T05:25:26;13.48;;;10.50;;
45522;SDS011;31254;51.680;5.394;2022-08-14T05:28:05;16.08;;;10.57;;
45522;SDS011;31254;51.680;5.394;2022-08-14T05:30:39;12.48;;;10.95;;
45522;SDS011;31254;51.680;5.394;2022-08-14T05:33:09;13.88;;;9.88;;
45522;SDS011;31254;51.680;5.394;2022-08-14T05:35:41;13.77;;;10.50;;
45522;SDS011;31254;51.680;5.394;2022-08-14T05:38:12;12.48;;;10.10;;
45522;SDS011;31254;51.680;5.394;2022-08-14T05:40:57;14.15;;;10.73;;
45522;SDS011;31254;51.680;5.394;2022-08-14T05:43:24;15.23;;;11.15;;
45522;SDS011;31254;51.680;5.394;2022-08-14T05:46:08;13.63;;;10.02;;
45522;SDS011;31254;51.680;5.394;2022-08-14T05:48:40;16.08;;;10.43;;
45522;SDS011;31254;51.680;5.394;2022-08-14T05:51:08;13.20;;;10.27;;
45522;SDS011;31254;51.680;5.394;2022-08-14T05:53:38;11.70;;;10.00;;
45522;SDS011;31254;51.680;5.394;2022-08-14T05:56:07;13.80;;;11.13;;
45522;SDS011;31254;51.680;5.394;2022-08-14T05:58:37;12.38;;;10.88;;
45522;SDS011;31254;51.680;5.394;2022-08-14T06:01:06;13.80;;;11.35;;
45522;SDS011;31254;51.680;5.394;2022-08-14T06:03:35;15.60;;;10.38;;
45522;SDS011;31254;51.680;5.394;2022-08-14T06:06:05;17.52;;;10.68;;
45522;SDS011;31254;51.680;5.394;2022-08-14T06:08:32;11.60;;;9.93;;
45522;SDS011;31254;51.680;5.394;2022-08-14T06:11:07;12.40;;;10.73;;
45522;SDS011;31254;51.680;5.394;2022-08-14T06:13:35;17.48;;;10.73;;
45522;SDS011;31254;51.680;5.394;2022-08-14T06:16:11;12.00;;;10.50;;
45522;SDS011;31254;51.680;5.394;2022-08-14T06:18:44;12.48;;;11.18;;
45522;SDS011;31254;51.680;5.394;2022-08-14T06:21:13;15.55;;;11.15;;
45522;SDS011;31254;51.680;5.394;2022-08-14T06:23:42;16.98;;;11.20;;
45522;SDS011;31254;51.680;5.394;2022-08-14T06:26:14;13.32;;;10.50;;
45522;SDS011;31254;51.680;5.394;2022-08-14T06:28:41;13.20;;;10.85;;
45522;SDS011;31254;51.680;5.394;2022-08-14T06:31:10;18.90;;;11.40;;
45522;SDS011;31254;51.680;5.394;2022-08-14T06:33:37;15.55;;;10.93;;
45522;SDS011;31254;51.680;5.394;2022-08-14T06:36:26;16.15;;;11.65;;
45522;SDS011;31254;51.680;5.394;2022-08-14T06:38:53;15.60;;;11.40;;
45522;SDS011;31254;51.680;5.394;2022-08-14T06:41:19;19.30;;;10.98;;
45522;SDS011;31254;51.680;5.394;2022-08-14T06:44:07;15.80;;;11.27;;
45522;SDS011;31254;51.680;5.394;2022-08-14T06:46:35;13.18;;;10.18;;
45522;SDS011;31254;51.680;5.394;2022-08-14T06:49:03;12.80;;;10.30;;
45522;SDS011;31254;51.680;5.394;2022-08-14T06:51:32;13.40;;;10.90;;
45522;SDS011;31254;51.680;5.394;2022-08-14T06:54:09;13.13;;;10.80;;
45522;SDS011;31254;51.680;5.394;2022-08-14T06:56:37;12.43;;;10.50;;
45522;SDS011;31254;51.680;5.394;2022-08-14T06:59:09;14.68;;;11.13;;
45522;SDS011;31254;51.680;5.394;2022-08-14T07:01:45;11.55;;;10.35;;
45522;SDS011;31254;51.680;5.394;2022-08-14T07:04:38;14.55;;;10.95;;
45522;SDS011;31254;51.680;5.394;2022-08-14T07:07:24;13.48;;;10.25;;
45522;SDS011;31254;51.680;5.394;2022-08-14T07:09:54;11.80;;;10.25;;
45522;SDS011;31254;51.680;5.394;2022-08-14T07:12:21;13.43;;;10.43;;
45522;SDS011;31254;51.680;5.394;2022-08-14T07:15:08;14.07;;;10.50;;
45522;SDS011;31254;51.680;5.394;2022-08-14T07:17:43;13.18;;;10.13;;
45522;SDS011;31254;51.680;5.394;2022-08-14T07:20:11;10.60;;;9.43;;
45522;SDS011;31254;51.680;5.394;2022-08-14T07:22:43;13.23;;;10.07;;
45522;SDS011;31254;51.680;5.394;2022-08-14T07:25:22;12.77;;;9.07;;
45522;SDS011;31254;51.680;5.394;2022-08-14T07:27:58;11.88;;;9.10;;
45522;SDS011;31254;51.680;5.394;2022-08-14T07:30:25;12.98;;;9.18;;
45522;SDS011;31254;51.680;5.394;2022-08-14T07:33:00;12.32;;;9.73;;
45522;SDS011;31254;51.680;5.394;2022-08-14T07:35:30;9.52;;;8.18;;
45522;SDS011;31254;51.680;5.394;2022-08-14T07:38:19;13.50;;;9.43;;
45522;SDS011;31254;51.680;5.394;2022-08-14T07:40:50;8.65;;;7.75;;
45522;SDS011;31254;51.680;5.394;2022-08-14T07:43:18;11.43;;;8.52;;
45522;SDS011;31254;51.680;5.394;2022-08-14T07:45:46;10.82;;;9.23;;
45522;SDS011;31254;51.680;5.394;2022-08-14T07:48:19;10.85;;;7.78;;
45522;SDS011;31254;51.680;5.394;2022-08-14T07:50:52;9.73;;;8.73;;
45522;SDS011;31254;51.680;5.394;2022-08-14T07:53:28;9.38;;;7.15;;
45522;SDS011;31254;51.680;5.394;2022-08-14T07:55:59;11.48;;;7.80;;
45522;SDS011;31254;51.680;5.394;2022-08-14T07:58:46;9.05;;;6.80;;
45522;SDS011;31254;51.680;5.394;2022-08-14T08:01:17;10.02;;;7.13;;
45522;SDS011;31254;51.680;5.394;2022-08-14T08:03:45;8.77;;;6.03;;
45522;SDS011;31254;51.680;5.394;2022-08-14T08:06:25;9.88;;;6.55;;
45522;SDS011;31254;51.680;5.394;2022-08-14T08:08:54;9.27;;;7.93;;
45522;SDS011;31254;51.680;5.394;2022-08-14T08:11:31;9.77;;;8.55;;
45522;SDS011;31254;51.680;5.394;2022-08-14T08:14:01;7.78;;;6.72;;
45522;SDS011;31254;51.680;5.394;2022-08-14T08:16:42;17.10;;;6.70;;
45522;SDS011;31254;51.680;5.394;2022-08-14T08:19:11;8.95;;;7.90;;
45522;SDS011;31254;51.680;5.394;2022-08-14T08:21:39;10.50;;;7.03;;
45522;SDS011;31254;51.680;5.394;2022-08-14T08:24:09;8.57;;;7.15;;
45522;SDS011;31254;51.680;5.394;2022-08-14T08:26:40;12.32;;;7.40;;
45522;SDS011;31254;51.680;5.394;2022-08-14T08:29:07;8.98;;;7.55;;
45522;SDS011;31254;51.680;5.394;2022-08-14T08:31:49;10.90;;;7.90;;
45522;SDS011;31254;51.680;5.394;2022-08-14T08:34:18;12.73;;;7.55;;
45522;SDS011;31254;51.680;5.394;2022-08-14T08:36:49;9.52;;;6.88;;
45522;SDS011;31254;51.680;5.394;2022-08-14T08:39:20;12.98;;;7.10;;
45522;SDS011;31254;51.680;5.394;2022-08-14T08:41:48;11.30;;;7.18;;
45522;SDS011;31254;51.680;5.394;2022-08-14T08:44:19;14.38;;;7.68;;
45522;SDS011;31254;51.680;5.394;2022-08-14T08:47:01;10.65;;;6.75;;
45522;SDS011;31254;51.680;5.394;2022-08-14T08:49:40;11.15;;;7.72;;
45522;SDS011;31254;51.680;5.394;2022-08-14T08:52:25;9.98;;;7.70;;
45522;SDS011;31254;51.680;5.394;2022-08-14T08:55:10;9.82;;;6.78;;
45522;SDS011;31254;51.680;5.394;2022-08-14T08:57:38;9.20;;;7.30;;
45522;SDS011;31254;51.680;5.394;2022-08-14T09:00:14;14.10;;;7.10;;
45522;SDS011;31254;51.680;5.394;2022-08-14T09:02:55;10.88;;;5.97;;
45522;SDS011;31254;51.680;5.394;2022-08-14T09:05:25;14.18;;;7.28;;
45522;SDS011;31254;51.680;5.394;2022-08-14T09:07:52;9.98;;;5.93;;
45522;SDS011;31254;51.680;5.394;2022-08-14T09:10:21;9.90;;;7.35;;
45522;SDS011;31254;51.680;5.394;2022-08-14T09:12:52;10.32;;;6.82;;
45522;SDS011;31254;51.680;5.394;2022-08-14T09:15:23;10.88;;;6.50;;
45522;SDS011;31254;51.680;5.394;2022-08-14T09:17:50;8.75;;;6.68;;
45522;SDS011;31254;51.680;5.394;2022-08-14T09:20:19;8.93;;;6.30;;
45522;SDS011;31254;51.680;5.394;2022-08-14T09:22:58;10.70;;;6.68;;
45522;SDS011;31254;51.680;5.394;2022-08-14T09:25:26;9.40;;;7.07;;
45522;SDS011;31254;51.680;5.394;2022-08-14T09:28:14;8.65;;;5.93;;
45522;SDS011;31254;51.680;5.394;2022-08-14T09:30:44;11.50;;;8.15;;
45522;SDS011;31254;51.680;5.394;2022-08-14T09:45:03;8.95;;;7.10;;
45522;SDS011;31254;51.680;5.394;2022-08-14T09:47:50;10.65;;;6.53;;
45522;SDS011;31254;51.680;5.394;2022-08-14T09:50:30;8.38;;;5.97;;
45522;SDS011;31254;51.680;5.394;2022-08-14T09:53:11;8.07;;;6.30;;
45522;SDS011;31254;51.680;5.394;2022-08-14T09:55:43;11.00;;;5.78;;
45522;SDS011;31254;51.680;5.394;2022-08-14T09:58:16;8.40;;;6.53;;
45522;SDS011;31254;51.680;5.394;2022-08-14T10:03:33;9.30;;;5.80;;
45522;SDS011;31254;51.680;5.394;2022-08-14T10:06:02;6.85;;;6.15;;
45522;SDS011;31254;51.680;5.394;2022-08-14T10:08:44;8.80;;;6.25;;
45522;SDS011;31254;51.680;5.394;2022-08-14T10:13:50;6.10;;;4.93;;
45522;SDS011;31254;51.680;5.394;2022-08-14T10:16:53;8.07;;;6.00;;
45522;SDS011;31254;51.680;5.394;2022-08-14T10:19:25;8.90;;;5.60;;
45522;SDS011;31254;51.680;5.394;2022-08-14T10:22:05;10.07;;;5.95;;
45522;SDS011;31254;51.680;5.394;2022-08-14T10:24:56;9.60;;;5.47;;
45522;SDS011;31254;51.680;5.394;2022-08-14T10:27:26;8.00;;;5.60;;
45522;SDS011;31254;51.680;5.394;2022-08-14T10:29:57;8.48;;;5.05;;
45522;SDS011;31254;51.680;5.394;2022-08-14T10:32:29;10.55;;;5.32;;
45522;SDS011;31254;51.680;5.394;2022-08-14T10:35:19;8.63;;;5.15;;
45522;SDS011;31254;51.680;5.394;2022-08-14T10:37:53;8.23;;;4.90;;
45522;SDS011;31254;51.680;5.394;2022-08-14T10:40:25;6.28;;;5.10;;
45522;SDS011;31254;51.680;5.394;2022-08-14T10:43:19;8.32;;;4.30;;
45522;SDS011;31254;51.680;5.394;2022-08-14T10:45:55;7.63;;;5.00;;
45522;SDS011;31254;51.680;5.394;2022-08-14T10:48:56;10.27;;;4.72;;
45522;SDS011;31254;51.680;5.394;2022-08-14T10:51:34;6.18;;;4.57;;
45522;SDS011;31254;51.680;5.394;2022-08-14T10:54:07;6.95;;;4.38;;
45522;SDS011;31254;51.680;5.394;2022-08-14T10:57:12;6.60;;;4.80;;
45522;SDS011;31254;51.680;5.394;2022-08-14T10:59:52;5.25;;;4.43;;
45522;SDS011;31254;51.680;5.394;2022-08-14T11:02:26;8.60;;;4.35;;
45522;SDS011;31254;51.680;5.394;2022-08-14T11:05:17;6.05;;;3.97;;
45522;SDS011;31254;51.680;5.394;2022-08-14T11:07:54;7.93;;;4.57;;
45522;SDS011;31254;51.680;5.394;2022-08-14T11:10:23;8.45;;;4.22;;
45522;SDS011;31254;51.680;5.394;2022-08-14T11:12:56;10.63;;;4.03;;
45522;SDS011;31254;51.680;5.394;2022-08-14T11:15:29;4.43;;;3.60;;
45522;SDS011;31254;51.680;5.394;2022-08-14T11:17:58;8.82;;;4.25;;
45522;SDS011;31254;51.680;5.394;2022-08-14T11:20:29;5.07;;;3.75;;
45522;SDS011;31254;51.680;5.394;2022-08-14T11:22:58;7.03;;;3.47;;
45522;SDS011;31254;51.680;5.394;2022-08-14T11:25:28;7.47;;;2.95;;
45522;SDS011;31254;51.680;5.394;2022-08-14T11:28:09;6.55;;;2.38;;
45522;SDS011;31254;51.680;5.394;2022-08-14T11:30:44;4.45;;;3.33;;
45522;SDS011;31254;51.680;5.394;2022-08-14T11:33:23;5.63;;;2.63;;
45522;SDS011;31254;51.680;5.394;2022-08-14T11:35:54;3.08;;;2.70;;
45522;SDS011;31254;51.680;5.394;2022-08-14T11:38:27;4.80;;;3.00;;
45522;SDS011;31254;51.680;5.394;2022-08-14T11:41:03;10.18;;;3.58;;
45522;SDS011;31254;51.680;5.394;2022-08-14T11:43:42;4.32;;;2.65;;
45522;SDS011;31254;51.680;5.394;2022-08-14T11:46:24;3.83;;;2.63;;
45522;SDS011;31254;51.680;5.394;2022-08-14T11:49:02;3.30;;;2.50;;
45522;SDS011;31254;51.680;5.394;2022-08-14T11:51:32;3.72;;;2.47;;
45522;SDS011;31254;51.680;5.394;2022-08-14T11:54:19;5.28;;;2.60;;
45522;SDS011;31254;51.680;5.394;2022-08-14T11:57:00;3.67;;;2.65;;
45522;SDS011;31254;51.680;5.394;2022-08-14T11:59:30;6.40;;;3.15;;
45522;SDS011;31254;51.680;5.394;2022-08-14T12:02:12;5.20;;;2.30;;
45522;SDS011;31254;51.680;5.394;2022-08-14T12:05:02;4.07;;;2.60;;
45522;SDS011;31254;51.680;5.394;2022-08-14T12:07:34;7.45;;;2.40;;
45522;SDS011;31254;51.680;5.394;2022-08-14T12:10:01;6.07;;;2.60;;
45522;SDS011;31254;51.680;5.394;2022-08-14T12:12:48;3.58;;;2.83;;
45522;SDS011;31254;51.680;5.394;2022-08-14T12:15:26;3.75;;;2.78;;
45522;SDS011;31254;51.680;5.394;2022-08-14T12:17:57;6.03;;;2.95;;
45522;SDS011;31254;51.680;5.394;2022-08-14T12:20:33;4.30;;;3.05;;
45522;SDS011;31254;51.680;5.394;2022-08-14T12:23:21;10.82;;;3.20;;
45522;SDS011;31254;51.680;5.394;2022-08-14T12:26:05;3.38;;;2.90;;
45522;SDS011;31254;51.680;5.394;2022-08-14T12:29:10;5.85;;;3.10;;
45522;SDS011;31254;51.680;5.394;2022-08-14T12:31:41;4.90;;;3.22;;
45522;SDS011;31254;51.680;5.394;2022-08-14T12:34:34;9.73;;;3.20;;
45522;SDS011;31254;51.680;5.394;2022-08-14T12:37:04;4.65;;;3.28;;
45522;SDS011;31254;51.680;5.394;2022-08-14T12:39:37;9.23;;;2.90;;
45522;SDS011;31254;51.680;5.394;2022-08-14T12:42:07;5.25;;;3.03;;
45522;SDS011;31254;51.680;5.394;2022-08-14T12:44:54;6.65;;;3.42;;
45522;SDS011;31254;51.680;5.394;2022-08-14T12:47:25;3.60;;;3.17;;
45522;SDS011;31254;51.680;5.394;2022-08-14T12:49:56;6.60;;;3.13;;
45522;SDS011;31254;51.680;5.394;2022-08-14T12:52:27;7.53;;;3.22;;
45522;SDS011;31254;51.680;5.394;2022-08-14T12:55:13;9.20;;;3.10;;
45522;SDS011;31254;51.680;5.394;2022-08-14T12:57:44;5.25;;;3.33;;
45522;SDS011;31254;51.680;5.394;2022-08-14T13:00:20;4.03;;;3.08;;
45522;SDS011;31254;51.680;5.394;2022-08-14T13:03:30;5.55;;;3.25;;
45522;SDS011;31254;51.680;5.394;2022-08-14T13:05:58;3.60;;;2.63;;
45522;SDS011;31254;51.680;5.394;2022-08-14T13:08:26;4.22;;;2.92;;
45522;SDS011;31254;51.680;5.394;2022-08-14T13:10:59;5.80;;;3.00;;
45522;SDS011;31254;51.680;5.394;2022-08-14T13:13:29;3.67;;;2.85;;
45522;SDS011;31254;51.680;5.394;2022-08-14T13:16:00;4.32;;;3.10;;
45522;SDS011;31254;51.680;5.394;2022-08-14T13:18:50;6.32;;;3.15;;
45522;SDS011;31254;51.680;5.394;2022-08-14T13:21:23;3.80;;;3.13;;
45522;SDS011;31254;51.680;5.394;2022-08-14T13:23:54;5.32;;;3.10;;
45522;SDS011;31254;51.680;5.394;2022-08-14T13:26:25;4.60;;;3.20;;
45522;SDS011;31254;51.680;5.394;2022-08-14T13:28:53;4.55;;;3.35;;
45522;SDS011;31254;51.680;5.394;2022-08-14T13:31:28;3.95;;;3.00;;
45522;SDS011;31254;51.680;5.394;2022-08-14T13:33:59;6.50;;;3.53;;
45522;SDS011;31254;51.680;5.394;2022-08-14T13:36:26;4.80;;;3.10;;
45522;SDS011;31254;51.680;5.394;2022-08-14T13:39:15;4.43;;;3.25;;
45522;SDS011;31254;51.680;5.394;2022-08-14T13:41:43;5.57;;;3.00;;
45522;SDS011;31254;51.680;5.394;2022-08-14T13:44:21;5.10;;;3.00;;
45522;SDS011;31254;51.680;5.394;2022-08-14T13:46:52;4.70;;;3.00;;
45522;SDS011;31254;51.680;5.394;2022-08-14T13:49:19;4.35;;;3.15;;
45522;SDS011;31254;51.680;5.394;2022-08-14T13:51:50;5.13;;;3.20;;
45522;SDS011;31254;51.680;5.394;2022-08-14T13:54:20;6.47;;;3.00;;
45522;SDS011;31254;51.680;5.394;2022-08-14T13:56:55;3.15;;;2.80;;
45522;SDS011;31254;51.680;5.394;2022-08-14T13:59:27;5.10;;;3.20;;
45522;SDS011;31254;51.680;5.394;2022-08-14T14:02:04;4.10;;;3.20;;
45522;SDS011;31254;51.680;5.394;2022-08-14T14:04:33;5.05;;;3.15;;
45522;SDS011;31254;51.680;5.394;2022-08-14T14:07:06;4.80;;;3.28;;
45522;SDS011;31254;51.680;5.394;2022-08-14T14:09:47;3.92;;;2.95;;
45522;SDS011;31254;51.680;5.394;2022-08-14T14:12:18;6.45;;;3.33;;
45522;SDS011;31254;51.680;5.394;2022-08-14T14:15:06;3.53;;;3.10;;
45522;SDS011;31254;51.680;5.394;2022-08-14T14:17:36;4.68;;;3.17;;
45522;SDS011;31254;51.680;5.394;2022-08-14T14:20:05;6.03;;;3.50;;
45522;SDS011;31254;51.680;5.394;2022-08-14T14:22:56;4.43;;;3.28;;
45522;SDS011;31254;51.680;5.394;2022-08-14T14:25:28;4.75;;;3.38;;
45522;SDS011;31254;51.680;5.394;2022-08-14T14:28:14;6.05;;;3.17;;
45522;SDS011;31254;51.680;5.394;2022-08-14T14:30:50;4.63;;;3.40;;
45522;SDS011;31254;51.680;5.394;2022-08-14T14:33:22;5.78;;;3.30;;
45522;SDS011;31254;51.680;5.394;2022-08-14T14:36:10;5.70;;;3.20;;
45522;SDS011;31254;51.680;5.394;2022-08-14T14:38:50;7.40;;;3.33;;
45522;SDS011;31254;51.680;5.394;2022-08-14T14:41:25;3.78;;;2.83;;
45522;SDS011;31254;51.680;5.394;2022-08-14T14:44:07;3.63;;;2.80;;
45522;SDS011;31254;51.680;5.394;2022-08-14T14:46:41;4.63;;;3.30;;
45522;SDS011;31254;51.680;5.394;2022-08-14T14:49:15;4.80;;;3.30;;
45522;SDS011;31254;51.680;5.394;2022-08-14T14:51:47;4.60;;;2.85;;
45522;SDS011;31254;51.680;5.394;2022-08-14T14:54:19;4.50;;;3.15;;
45522;SDS011;31254;51.680;5.394;2022-08-14T14:56:58;7.60;;;3.63;;
45522;SDS011;31254;51.680;5.394;2022-08-14T14:59:30;4.82;;;3.00;;
45522;SDS011;31254;51.680;5.394;2022-08-14T15:02:01;5.25;;;3.20;;
45522;SDS011;31254;51.680;5.394;2022-08-14T15:04:33;3.30;;;2.90;;
45522;SDS011;31254;51.680;5.394;2022-08-14T15:07:03;3.83;;;3.00;;
45522;SDS011;31254;51.680;5.394;2022-08-14T15:09:32;3.30;;;2.92;;
45522;SDS011;31254;51.680;5.394;2022-08-14T15:11:59;7.68;;;3.08;;
45522;SDS011;31254;51.680;5.394;2022-08-14T15:14:41;7.30;;;3.83;;
45522;SDS011;31254;51.680;5.394;2022-08-14T15:17:22;4.85;;;3.30;;
45522;SDS011;31254;51.680;5.394;2022-08-14T15:19:53;5.57;;;3.30;;
45522;SDS011;31254;51.680;5.394;2022-08-14T15:22:22;4.22;;;3.72;;
45522;SDS011;31254;51.680;5.394;2022-08-14T15:24:50;7.18;;;4.32;;
45522;SDS011;31254;51.680;5.394;2022-08-14T15:27:17;4.90;;;3.60;;
45522;SDS011;31254;51.680;5.394;2022-08-14T15:29:51;3.97;;;3.47;;
45522;SDS011;31254;51.680;5.394;2022-08-14T15:32:18;5.22;;;3.20;;
45522;SDS011;31254;51.680;5.394;2022-08-14T15:34:48;6.20;;;3.35;;
45522;SDS011;31254;51.680;5.394;2022-08-14T15:37:20;5.57;;;3.20;;
45522;SDS011;31254;51.680;5.394;2022-08-14T15:39:48;5.00;;;3.33;;
45522;SDS011;31254;51.680;5.394;2022-08-14T15:42:18;5.28;;;3.45;;